Terminal Aerodrome Forecast
Issued by NWS Knoxville/Tri Cities, TN

Home | Current Version | Previous Version | Text Only | Print | Product List | Glossary On
Versions: 1 2 3 4 5 6 7 8 9 10 11 12 13 14 15 16
000
FTUS44 KMRX 171720
TAFTRI
TAF
KTRI 171720Z 1718/1818 09006KT 6SM BR OVC035
      TEMPO 1719/1721 3SM -RA BKN020
     FM172100 21006KT 2SM -RA BR OVC008
     FM180200 26005KT P6SM OVC006
     FM181000 VRB03KT P6SM OVC015
     FM181700 04003KT P6SM SCT030=

USA.gov is the U.S. government's official web portal to all federal, state and local government web resources and services.